Terminal Aerodrome Forecast
Issued by NWS Billings, MT

Current Version | Previous Version | Text Only | Print | Product List | Glossary On
Versions: 1 2 3 4 5 6 7 8 9 10 11 12 13 14 15 16
000
FTUS45 KBYZ 311121
TAFSHR
TAF
KSHR 311121Z 3112/0112 31012G22KT P6SM FEW050 SCT120
     FM311500 31025G40KT P6SM SCT050 SCT150
     FM010200 29010KT P6SM FEW050 SCT200=

USA.gov is the U.S. government's official web portal to all federal, state and local government web resources and services.